Time;durP1;ratioP1;P1;durP2;ratioP2;P2;SDS_P1;SDS_P2;PMS_P1;PMS_P2;Temp;Humidity;BMP_temperature;BMP_pressure;BME280_temperature;BME280_humidity;BME280_pressure;Samples;Min_cycle;Max_cycle;Signal;HPM_P1;HPM_P2
2022/02/22 00:00:00;;;;;;;16.13;4.97;;;6.30;99.90;;;;;;4957529;28;20130;-66
2022/02/22 00:02:27;;;;;;;29.20;6.85;;;6.30;99.90;;;;;;4954404;28;20062;-66
2022/02/22 00:04:53;;;;;;;19.73;4.80;;;6.30;99.90;;;;;;4970091;28;20134;-66
2022/02/22 00:07:20;;;;;;;17.80;5.30;;;6.20;99.90;;;;;;4967666;28;20494;-66
2022/02/22 00:09:47;;;;;;;18.92;5.20;;;6.20;99.90;;;;;;4957314;28;20059;-66
2022/02/22 00:12:16;;;;;;;17.23;4.97;;;6.20;99.90;;;;;;4971876;28;20051;-66
2022/02/22 00:14:46;;;;;;;23.45;5.45;;;6.20;99.90;;;;;;4961317;28;20043;-66
2022/02/22 00:17:13;;;;;;;16.08;5.45;;;6.10;99.90;;;;;;4958703;28;20134;-66
2022/02/22 00:19:40;;;;;;;19.05;5.50;;;6.10;99.90;;;;;;4969858;28;20070;-66
2022/02/22 00:22:07;;;;;;;15.48;4.70;;;6.10;99.90;;;;;;4969919;28;20054;-66
2022/02/22 00:24:34;;;;;;;15.82;5.32;;;6.00;99.90;;;;;;4952931;28;20119;-66
2022/02/22 00:27:01;;;;;;;18.48;4.60;;;6.00;99.90;;;;;;4988104;28;20046;-66
2022/02/22 00:29:28;;;;;;;21.60;4.68;;;6.00;99.90;;;;;;4958047;28;20059;-66
2022/02/22 00:31:55;;;;;;;19.08;5.53;;;6.00;99.90;;;;;;4963442;28;20519;-66
2022/02/22 00:34:22;;;;;;;15.30;5.20;;;6.00;99.90;;;;;;4973559;28;20043;-66
2022/02/22 00:36:49;;;;;;;25.98;6.43;;;6.00;99.90;;;;;;4947479;29;20503;-66
2022/02/22 00:39:16;;;;;;;12.90;4.38;;;6.00;99.90;;;;;;4955221;28;20096;-67
2022/02/22 00:41:43;;;;;;;14.82;4.90;;;6.10;99.90;;;;;;4959000;28;20047;-66
2022/02/22 00:44:10;;;;;;;19.23;5.43;;;6.10;99.90;;;;;;4959351;28;20040;-66
2022/02/22 00:46:37;;;;;;;24.90;6.60;;;6.10;99.90;;;;;;4947115;28;20053;-66
2022/02/22 00:49:04;;;;;;;14.38;4.85;;;6.10;99.90;;;;;;4973079;28;20353;-66
2022/02/22 00:51:31;;;;;;;17.45;4.35;;;6.10;99.90;;;;;;4947522;28;20563;-66
2022/02/22 00:53:57;;;;;;;15.23;5.00;;;6.10;99.90;;;;;;4962080;28;20051;-66
2022/02/22 00:56:25;;;;;;;15.95;4.45;;;6.10;99.90;;;;;;4971033;28;20051;-66
2022/02/22 00:58:53;;;;;;;14.10;5.20;;;6.00;99.90;;;;;;4956813;28;20135;-66
2022/02/22 01:01:20;;;;;;;16.50;5.47;;;6.00;99.90;;;;;;4970610;28;20051;-66
2022/02/22 01:03:47;;;;;;;22.23;5.32;;;6.00;99.90;;;;;;4970260;28;20051;-66
2022/02/22 01:06:14;;;;;;;15.93;5.75;;;6.00;99.90;;;;;;4961959;28;20050;-66
2022/02/22 01:08:41;;;;;;;14.55;6.03;;;6.00;99.90;;;;;;4959056;28;20047;-66
2022/02/22 01:11:08;;;;;;;18.60;4.30;;;6.00;99.90;;;;;;4957160;28;20059;-66
2022/02/22 01:13:35;;;;;;;16.25;4.78;;;6.00;99.90;;;;;;4960836;28;20054;-65
2022/02/22 01:16:02;;;;;;;18.70;4.50;;;6.00;99.90;;;;;;4961629;28;20058;-65
2022/02/22 01:18:29;;;;;;;12.57;4.85;;;5.90;99.90;;;;;;4968052;28;20039;-65
2022/02/22 01:20:56;;;;;;;17.27;6.38;;;5.90;99.90;;;;;;4984799;28;20047;-66
2022/02/22 01:23:23;;;;;;;18.75;5.65;;;5.90;99.90;;;;;;4954485;28;20065;-65
2022/02/22 01:25:50;;;;;;;14.77;4.75;;;6.00;99.90;;;;;;4960533;28;20073;-66
2022/02/22 01:28:17;;;;;;;24.85;6.75;;;6.00;99.90;;;;;;4957845;28;20058;-65
2022/02/22 01:30:44;;;;;;;21.67;6.30;;;6.10;99.90;;;;;;4956755;28;20051;-65
2022/02/22 01:33:11;;;;;;;23.25;5.45;;;6.10;99.90;;;;;;4970507;28;20051;-65
2022/02/22 01:35:39;;;;;;;15.18;3.97;;;6.20;99.90;;;;;;4957235;28;20051;-65
2022/02/22 01:38:06;;;;;;;14.93;4.75;;;6.20;99.90;;;;;;4959039;28;20054;-65
2022/02/22 01:40:33;;;;;;;16.13;5.45;;;6.20;99.90;;;;;;4952448;28;20130;-65
2022/02/22 01:43:00;;;;;;;16.98;5.55;;;6.30;99.90;;;;;;4952950;28;20047;-66
2022/02/22 01:45:27;;;;;;;21.38;5.85;;;6.30;99.90;;;;;;4936847;29;20057;-66
2022/02/22 01:47:54;;;;;;;19.15;5.18;;;6.40;99.90;;;;;;4983855;28;20047;-66
2022/02/22 01:50:21;;;;;;;23.40;6.50;;;6.40;99.90;;;;;;4968692;28;20047;-66
2022/02/22 01:52:48;;;;;;;14.77;5.65;;;6.50;99.90;;;;;;4954513;28;20073;-66
2022/02/22 01:55:16;;;;;;;20.13;7.18;;;6.50;99.90;;;;;;4984648;28;20061;-66
2022/02/22 01:57:42;;;;;;;17.75;5.50;;;6.60;99.90;;;;;;4953024;28;20043;-65
2022/02/22 02:00:11;;;;;;;17.38;6.32;;;6.60;99.90;;;;;;4955644;28;20410;-66
2022/02/22 02:02:38;;;;;;;19.10;6.53;;;6.60;99.90;;;;;;4955469;28;20055;-65
2022/02/22 02:05:05;;;;;;;26.30;5.90;;;6.60;99.90;;;;;;4954111;28;20071;-65
2022/02/22 02:07:33;;;;;;;22.42;7.22;;;6.60;99.90;;;;;;4951255;28;20073;-66
2022/02/22 02:10:00;;;;;;;25.63;7.30;;;6.60;99.90;;;;;;4941293;29;20411;-65
2022/02/22 02:12:27;;;;;;;21.80;6.63;;;6.70;99.90;;;;;;4968218;28;20047;-65
2022/02/22 02:14:54;;;;;;;22.20;6.03;;;6.70;99.90;;;;;;4962755;28;20050;-67
2022/02/22 02:17:24;;;;;;;22.88;8.05;;;6.70;99.90;;;;;;4955363;28;20046;-66
2022/02/22 02:19:51;;;;;;;23.85;6.95;;;6.70;99.90;;;;;;4959953;28;20058;-66
2022/02/22 02:22:17;;;;;;;33.53;7.60;;;6.70;99.90;;;;;;4958394;28;20051;-66
2022/02/22 02:24:44;;;;;;;16.73;6.03;;;6.70;99.90;;;;;;4960511;28;20057;-66
2022/02/22 02:27:11;;;;;;;30.50;6.32;;;6.70;99.90;;;;;;4954134;28;20051;-66
2022/02/22 02:29:42;;;;;;;26.35;6.95;;;6.70;99.90;;;;;;4955974;28;20057;-66
2022/02/22 02:32:09;;;;;;;24.00;7.22;;;6.80;99.90;;;;;;4952708;28;20055;-66
2022/02/22 02:34:36;;;;;;;23.85;6.88;;;6.80;99.90;;;;;;4953748;28;20050;-66
2022/02/22 02:37:03;;;;;;;29.98;8.50;;;6.90;99.90;;;;;;4936838;29;20054;-66
2022/02/22 02:39:30;;;;;;;24.63;8.63;;;6.90;99.90;;;;;;4983894;28;20066;-66
2022/02/22 02:41:57;;;;;;;31.55;7.30;;;6.90;99.90;;;;;;4957565;28;20054;-66
2022/02/22 02:44:24;;;;;;;26.77;8.13;;;6.90;99.90;;;;;;4965165;28;20061;-66
2022/02/22 02:46:51;;;;;;;35.53;7.63;;;6.90;99.90;;;;;;4956399;28;20050;-66
2022/02/22 02:49:19;;;;;;;28.17;7.35;;;6.90;99.90;;;;;;4969290;28;20066;-66
2022/02/22 02:51:46;;;;;;;32.20;8.70;;;6.80;99.90;;;;;;4956589;28;20067;-66
2022/02/22 02:54:13;;;;;;;34.50;9.63;;;6.80;99.90;;;;;;4987808;28;20055;-66
2022/02/22 02:56:40;;;;;;;43.03;10.40;;;6.80;99.90;;;;;;4956448;29;20051;-66
2022/02/22 02:59:08;;;;;;;28.58;7.68;;;6.80;99.90;;;;;;4957677;28;20047;-66
2022/02/22 03:01:36;;;;;;;26.88;9.55;;;6.90;99.90;;;;;;4968198;28;20059;-66
2022/02/22 03:04:04;;;;;;;35.90;10.02;;;6.90;99.90;;;;;;4980615;28;20047;-65
2022/02/22 03:06:31;;;;;;;39.33;9.48;;;6.90;99.90;;;;;;4949210;29;20051;-65
2022/02/22 03:08:58;;;;;;;32.38;10.52;;;6.90;99.90;;;;;;4969561;28;20062;-65
2022/02/22 03:11:25;;;;;;;37.30;8.45;;;6.90;99.90;;;;;;4972831;28;20051;-66
2022/02/22 03:13:52;;;;;;;38.95;9.63;;;6.90;99.90;;;;;;4942289;28;20074;-66
2022/02/22 03:16:19;;;;;;;27.45;8.93;;;6.90;99.90;;;;;;4950898;28;20054;-65
2022/02/22 03:18:46;;;;;;;29.90;9.10;;;6.90;99.90;;;;;;4972923;28;20047;-66
2022/02/22 03:21:13;;;;;;;33.78;7.97;;;6.90;99.90;;;;;;4963074;28;20047;-66
2022/02/22 03:23:40;;;;;;;32.13;8.20;;;7.00;99.90;;;;;;4972875;28;20051;-66
2022/02/22 03:26:06;;;;;;;42.97;10.05;;;7.10;99.90;;;;;;4954173;28;20054;-66
2022/02/22 03:28:37;;;;;;;31.13;8.43;;;7.10;99.90;;;;;;4957974;28;20048;-66
2022/02/22 03:31:04;;;;;;;33.85;7.80;;;7.10;99.90;;;;;;4986226;28;20043;-66
2022/02/22 03:33:31;;;;;;;26.27;8.02;;;7.10;99.90;;;;;;4956148;28;20047;-65
2022/02/22 03:35:59;;;;;;;35.15;9.75;;;7.20;99.90;;;;;;4946155;28;20509;-66
2022/02/22 03:38:26;;;;;;;36.30;9.95;;;7.20;99.90;;;;;;4960848;28;20408;-65
2022/02/22 03:40:53;;;;;;;28.83;10.07;;;7.30;99.90;;;;;;4956730;28;20700;-66
2022/02/22 03:43:20;;;;;;;39.13;11.57;;;7.30;99.90;;;;;;4958050;28;20050;-66
2022/02/22 03:45:47;;;;;;;37.47;9.52;;;7.30;99.90;;;;;;4986836;28;20051;-65
2022/02/22 03:48:13;;;;;;;38.60;10.95;;;7.30;99.90;;;;;;4953836;28;20056;-66
2022/02/22 03:50:40;;;;;;;45.28;12.00;;;7.30;99.90;;;;;;4962077;28;20052;-66
2022/02/22 03:53:07;;;;;;;40.72;9.60;;;7.40;99.90;;;;;;4988510;28;20062;-66
2022/02/22 03:55:35;;;;;;;34.95;9.10;;;7.40;99.90;;;;;;4947557;28;20094;-66
2022/02/22 03:58:02;;;;;;;38.72;10.55;;;7.50;99.90;;;;;;4948269;29;20070;-66
2022/02/22 04:00:30;;;;;;;40.60;9.90;;;7.40;99.90;;;;;;4959892;28;20054;-66
2022/02/22 04:02:59;;;;;;;33.92;8.90;;;7.50;99.90;;;;;;4939889;28;20055;-66
2022/02/22 04:05:26;;;;;;;30.75;8.93;;;7.50;99.90;;;;;;4969547;28;20049;-66
2022/02/22 04:07:53;;;;;;;33.15;10.18;;;7.50;99.90;;;;;;4959341;28;20415;-66
2022/02/22 04:10:20;;;;;;;29.75;9.10;;;7.60;99.90;;;;;;4942113;28;20047;-65
2022/02/22 04:12:47;;;;;;;33.58;8.77;;;7.60;99.90;;;;;;4954744;28;20055;-66
2022/02/22 04:15:17;;;;;;;31.67;10.10;;;7.60;99.90;;;;;;4942295;29;20499;-66
2022/02/22 04:17:46;;;;;;;27.17;9.43;;;7.60;99.90;;;;;;4986192;28;20087;-65
2022/02/22 04:20:13;;;;;;;33.58;9.57;;;7.60;99.90;;;;;;4955332;28;20058;-66
2022/02/22 04:22:41;;;;;;;32.22;9.35;;;7.60;99.90;;;;;;4971259;28;20051;-66
2022/02/22 04:25:08;;;;;;;39.20;11.77;;;7.60;99.90;;;;;;4971925;28;20058;-66
2022/02/22 04:27:36;;;;;;;31.83;8.55;;;7.60;99.90;;;;;;4972569;28;20054;-66
2022/02/22 04:30:04;;;;;;;34.80;9.88;;;7.70;99.90;;;;;;4937645;29;20048;-66
2022/02/22 04:32:31;;;;;;;35.35;8.32;;;7.60;99.90;;;;;;4971706;28;20057;-66
2022/02/22 04:34:58;;;;;;;34.33;10.32;;;7.60;99.90;;;;;;4950792;28;20055;-65
2022/02/22 04:37:25;;;;;;;32.58;9.98;;;7.60;99.90;;;;;;4985659;28;20054;-66
2022/02/22 04:39:55;;;;;;;41.85;10.38;;;7.60;99.90;;;;;;4985516;28;20048;-66
2022/02/22 04:42:22;;;;;;;34.70;10.90;;;7.60;99.90;;;;;;4956448;28;20065;-66
2022/02/22 04:44:49;;;;;;;35.95;9.30;;;7.60;99.90;;;;;;4993622;28;20094;-66
2022/02/22 04:47:16;;;;;;;41.95;11.10;;;7.60;99.90;;;;;;4938530;29;20047;-66
2022/02/22 04:49:43;;;;;;;36.13;9.20;;;7.60;99.90;;;;;;4957612;28;20070;-66
2022/02/22 04:52:10;;;;;;;41.65;9.82;;;7.60;99.90;;;;;;4942162;29;20047;-66
2022/02/22 04:54:37;;;;;;;32.53;9.35;;;7.60;99.90;;;;;;4954101;28;20051;-66
2022/02/22 04:57:05;;;;;;;33.90;11.38;;;7.60;99.90;;;;;;4963072;28;20051;-66
2022/02/22 04:59:33;;;;;;;34.40;8.38;;;7.50;99.90;;;;;;4957889;28;20050;-66
2022/02/22 05:02:00;;;;;;;30.27;8.40;;;7.50;99.90;;;;;;4971133;28;20491;-66
2022/02/22 05:04:27;;;;;;;36.47;10.02;;;7.50;99.90;;;;;;4954092;28;20065;-66
2022/02/22 05:06:54;;;;;;;30.75;10.02;;;7.50;99.90;;;;;;4961894;28;20098;-66
2022/02/22 05:09:21;;;;;;;38.70;10.85;;;7.40;99.90;;;;;;4958413;28;20113;-66
2022/02/22 05:11:48;;;;;;;37.30;9.50;;;7.50;99.90;;;;;;4963210;28;20051;-66
2022/02/22 05:14:15;;;;;;;32.42;8.30;;;7.40;99.90;;;;;;4954769;28;20471;-66
2022/02/22 05:16:42;;;;;;;31.50;10.05;;;7.50;99.90;;;;;;4963776;28;20051;-66
2022/02/22 05:19:09;;;;;;;34.20;8.57;;;7.50;99.90;;;;;;4965968;28;20525;-66
2022/02/22 05:21:36;;;;;;;34.13;8.55;;;7.50;99.90;;;;;;4960513;28;20051;-66
2022/02/22 05:24:05;;;;;;;30.55;9.82;;;7.50;99.90;;;;;;4961516;28;20090;-66
2022/02/22 05:26:32;;;;;;;27.77;7.55;;;7.60;99.90;;;;;;4935996;29;20510;-66
2022/02/22 05:28:59;;;;;;;29.95;8.85;;;7.60;99.90;;;;;;4946065;28;20058;-66
2022/02/22 05:31:26;;;;;;;27.60;10.07;;;7.60;99.90;;;;;;4960293;28;20043;-66
2022/02/22 05:33:53;;;;;;;30.42;8.45;;;7.60;99.90;;;;;;4956105;28;20055;-66
2022/02/22 05:36:20;;;;;;;26.35;5.93;;;7.70;99.90;;;;;;4958556;28;20130;-66
2022/02/22 05:38:48;;;;;;;22.70;7.70;;;7.70;99.90;;;;;;4941840;28;20055;-65
2022/02/22 05:41:17;;;;;;;23.38;6.47;;;7.80;99.90;;;;;;4954035;28;20046;-65
2022/02/22 05:43:48;;;;;;;26.45;7.03;;;7.80;99.90;;;;;;4965301;28;20556;-66
2022/02/22 05:46:15;;;;;;;25.98;7.55;;;7.80;99.90;;;;;;4967004;28;20049;-66
2022/02/22 05:48:44;;;;;;;26.40;7.18;;;7.90;99.90;;;;;;4953453;29;20062;-65
2022/02/22 05:51:13;;;;;;;25.58;6.82;;;7.90;99.90;;;;;;4954920;28;20047;-65
2022/02/22 05:53:40;;;;;;;27.80;7.57;;;8.00;99.90;;;;;;4960936;28;20062;-66
2022/02/22 05:56:07;;;;;;;23.73;6.97;;;8.00;99.90;;;;;;4954186;28;20078;-66
2022/02/22 05:58:34;;;;;;;24.55;7.28;;;8.00;99.90;;;;;;4959750;28;20050;-66
2022/02/22 06:01:01;;;;;;;22.13;6.65;;;8.10;99.90;;;;;;4959789;28;20043;-66
2022/02/22 06:03:28;;;;;;;17.08;5.70;;;8.10;99.90;;;;;;4944188;29;20492;-66
2022/02/22 06:05:55;;;;;;;27.75;7.25;;;8.10;99.90;;;;;;4984248;28;20055;-65
2022/02/22 06:08:22;;;;;;;25.33;5.68;;;8.10;99.90;;;;;;4946640;28;20447;-65
2022/02/22 06:10:49;;;;;;;22.70;6.28;;;8.20;99.90;;;;;;4943155;28;20066;-65
2022/02/22 06:13:18;;;;;;;19.40;6.97;;;8.20;99.90;;;;;;4987232;28;20086;-66
2022/02/22 06:15:45;;;;;;;32.72;8.82;;;8.30;99.90;;;;;;4952363;28;20058;-66
2022/02/22 06:18:12;;;;;;;22.05;6.30;;;8.30;99.90;;;;;;4963049;28;20043;-66
2022/02/22 06:20:39;;;;;;;28.83;6.40;;;8.30;99.90;;;;;;4938625;29;20051;-66
2022/02/22 06:23:06;;;;;;;21.52;7.07;;;8.30;99.90;;;;;;4957575;28;20049;-66
2022/02/22 06:25:34;;;;;;;21.35;7.35;;;8.40;99.90;;;;;;4962335;28;20051;-65
2022/02/22 06:28:01;;;;;;;24.23;7.10;;;8.40;99.90;;;;;;4957999;28;20051;-66
2022/02/22 06:30:34;;;;;;;20.58;7.35;;;8.50;99.90;;;;;;4958980;28;20047;-65
2022/02/22 06:33:01;;;;;;;23.88;5.82;;;8.50;99.90;;;;;;4956595;28;20077;-65
2022/02/22 06:35:27;;;;;;;26.38;7.63;;;8.50;99.90;;;;;;4968736;28;20127;-66
2022/02/22 06:37:54;;;;;;;27.85;6.15;;;8.60;99.90;;;;;;4946639;29;20054;-65
2022/02/22 06:40:21;;;;;;;19.45;6.35;;;8.50;99.90;;;;;;4971897;28;20488;-65
2022/02/22 06:42:51;;;;;;;36.78;7.43;;;8.50;99.90;;;;;;4959032;28;20054;-65
2022/02/22 06:45:18;;;;;;;22.92;6.32;;;8.60;99.90;;;;;;4943594;28;20044;-66
2022/02/22 06:47:45;;;;;;;22.52;7.10;;;8.60;99.90;;;;;;4957251;28;20055;-65
2022/02/22 06:50:12;;;;;;;23.08;5.25;;;8.60;99.90;;;;;;4965024;28;20050;-67
2022/02/22 06:52:40;;;;;;;28.30;10.13;;;8.60;99.90;;;;;;4960723;28;20054;-64
2022/02/22 06:55:08;;;;;;;156.23;113.97;;;8.60;99.90;;;;;;4948843;29;20043;-63
2022/02/22 06:57:35;;;;;;;28.80;10.80;;;8.60;99.90;;;;;;4968663;28;20053;-65
2022/02/22 07:00:05;;;;;;;21.55;6.68;;;8.70;99.90;;;;;;4948933;28;20501;-63
2022/02/22 07:02:32;;;;;;;21.55;7.20;;;8.60;99.90;;;;;;4933111;28;20047;-64
2022/02/22 07:04:59;;;;;;;16.55;6.30;;;8.60;99.90;;;;;;4957056;28;20044;-66
2022/02/22 07:07:26;;;;;;;22.17;5.93;;;8.60;99.90;;;;;;4966683;28;20064;-65
2022/02/22 07:09:55;;;;;;;23.75;5.93;;;8.50;99.90;;;;;;4964098;28;20050;-65
2022/02/22 07:12:25;;;;;;;20.42;6.05;;;8.50;99.90;;;;;;4936672;29;20513;-65
2022/02/22 07:14:52;;;;;;;54.60;31.52;;;8.60;99.90;;;;;;4961659;28;20043;-64
2022/02/22 07:17:18;;;;;;;65.88;45.47;;;8.60;99.90;;;;;;4961780;28;20498;-64
2022/02/22 07:19:45;;;;;;;765.83;417.42;;;8.70;99.90;;;;;;4957589;28;20089;-64
2022/02/22 07:22:12;;;;;;;76.15;45.78;;;8.70;99.90;;;;;;4988358;28;20055;-63
2022/02/22 07:24:40;;;;;;;36.22;18.83;;;8.80;99.90;;;;;;4974130;28;20047;-65
2022/02/22 07:27:07;;;;;;;30.75;13.43;;;8.80;99.90;;;;;;4972855;28;20487;-65
2022/02/22 07:29:34;;;;;;;25.83;10.27;;;8.80;99.90;;;;;;4963485;28;20054;-65
2022/02/22 07:32:01;;;;;;;22.17;6.53;;;8.80;99.90;;;;;;4963609;28;20091;-65
2022/02/22 07:34:28;;;;;;;19.17;5.45;;;8.80;99.90;;;;;;4956118;28;20043;-66
2022/02/22 07:36:57;;;;;;;20.27;5.82;;;8.90;99.90;;;;;;4959164;28;20483;-64
2022/02/22 07:39:24;;;;;;;16.85;5.40;;;8.90;99.90;;;;;;4972409;28;20145;-64
2022/02/22 07:41:51;;;;;;;18.17;5.32;;;9.00;99.90;;;;;;4972014;28;20494;-64
2022/02/22 07:44:18;;;;;;;15.48;4.50;;;9.00;99.90;;;;;;4964704;28;20050;-64
2022/02/22 07:46:45;;;;;;;17.23;5.85;;;9.00;99.90;;;;;;4956545;28;20055;-64
2022/02/22 07:49:12;;;;;;;18.98;6.35;;;9.10;99.90;;;;;;4974396;28;20051;-64
2022/02/22 07:51:39;;;;;;;19.50;6.40;;;9.10;99.90;;;;;;4962380;28;20059;-64
2022/02/22 07:54:09;;;;;;;23.38;6.03;;;9.20;99.90;;;;;;4984188;28;20055;-64
2022/02/22 07:56:36;;;;;;;17.33;6.18;;;9.30;99.90;;;;;;4954507;29;20055;-64
2022/02/22 07:59:03;;;;;;;19.88;6.45;;;9.30;99.90;;;;;;4956169;28;20051;-64
2022/02/22 08:01:30;;;;;;;13.40;4.50;;;9.40;99.90;;;;;;4970203;28;20047;-64
2022/02/22 08:03:57;;;;;;;28.08;6.70;;;9.40;99.90;;;;;;4961390;28;20439;-65
2022/02/22 08:06:25;;;;;;;14.50;5.32;;;9.40;99.90;;;;;;4939608;28;20055;-64
2022/02/22 08:08:52;;;;;;;14.65;4.63;;;9.40;99.90;;;;;;4967197;28;20059;-64
2022/02/22 08:11:20;;;;;;;13.60;4.60;;;9.50;99.90;;;;;;4966751;28;20488;-65
2022/02/22 08:13:49;;;;;;;12.10;4.95;;;9.60;99.90;;;;;;4986017;28;20066;-65
2022/02/22 08:16:16;;;;;;;15.15;4.95;;;9.60;99.90;;;;;;4964891;28;20406;-65
2022/02/22 08:18:43;;;;;;;16.05;5.35;;;9.60;99.90;;;;;;4960536;28;20047;-64
2022/02/22 08:21:11;;;;;;;17.52;4.47;;;9.60;99.90;;;;;;4966384;28;20052;-64
2022/02/22 08:23:38;;;;;;;14.77;4.40;;;9.70;99.90;;;;;;4960152;28;20047;-65
2022/02/22 08:26:05;;;;;;;18.50;5.35;;;9.70;99.90;;;;;;4966787;28;20550;-65
2022/02/22 08:28:32;;;;;;;14.27;4.93;;;9.80;99.90;;;;;;4965726;28;20043;-64
2022/02/22 08:30:59;;;;;;;17.23;4.43;;;9.80;99.90;;;;;;4986979;28;20079;-66
2022/02/22 08:33:26;;;;;;;14.88;4.53;;;9.80;99.90;;;;;;4955751;28;20055;-65
2022/02/22 08:35:56;;;;;;;20.13;6.53;;;9.90;99.90;;;;;;4941978;28;20146;-65
2022/02/22 08:38:23;;;;;;;17.85;5.70;;;10.00;99.90;;;;;;4940119;29;20542;-66
2022/02/22 08:40:50;;;;;;;14.40;4.57;;;10.00;99.90;;;;;;4932845;28;20466;-64
2022/02/22 08:43:17;;;;;;;32.03;25.40;;;10.10;99.90;;;;;;4946788;28;20403;-65
2022/02/22 08:45:45;;;;;;;22.70;6.75;;;10.20;99.90;;;;;;4968842;28;20078;-75
2022/02/22 08:48:13;;;;;;;24.30;5.63;;;10.30;99.90;;;;;;4968701;28;20082;-76
2022/02/22 08:50:41;;;;;;;12.32;4.70;;;10.40;99.90;;;;;;4954876;28;20143;-77
2022/02/22 08:53:08;;;;;;;12.70;3.97;;;10.40;99.90;;;;;;4969524;28;20039;-74
2022/02/22 08:55:35;;;;;;;18.13;4.22;;;10.50;99.90;;;;;;4948167;29;20043;-73
2022/02/22 08:58:02;;;;;;;60.75;41.40;;;10.50;99.90;;;;;;4983741;28;20098;-73
2022/02/22 09:00:31;;;;;;;66.35;38.40;;;10.60;99.90;;;;;;4953695;29;20050;-71
2022/02/22 09:03:00;;;;;;;18.60;7.80;;;10.60;99.90;;;;;;4954711;28;20075;-71
2022/02/22 09:05:28;;;;;;;20.20;5.68;;;10.70;99.90;;;;;;4967109;28;20081;-72
2022/02/22 09:07:58;;;;;;;14.40;4.85;;;10.70;99.90;;;;;;4967717;28;20462;-72
2022/02/22 09:10:25;;;;;;;12.75;4.22;;;10.80;99.90;;;;;;4955210;28;20141;-72
2022/02/22 09:12:53;;;;;;;12.93;3.53;;;10.90;99.90;;;;;;4952983;28;20046;-72
2022/02/22 09:15:20;;;;;;;11.70;3.55;;;10.90;99.90;;;;;;4969819;28;20053;-73
2022/02/22 09:17:48;;;;;;;18.63;5.75;;;10.90;99.90;;;;;;4956431;28;20079;-72
2022/02/22 09:20:16;;;;;;;22.00;5.07;;;11.00;99.90;;;;;;4922242;28;20447;-74
2022/02/22 09:22:43;;;;;;;14.65;4.38;;;11.00;99.90;;;;;;4944527;28;20402;-72
2022/02/22 09:25:13;;;;;;;16.45;4.68;;;11.00;99.90;;;;;;4983923;28;20506;-75
2022/02/22 09:27:42;;;;;;;15.70;5.22;;;11.00;99.90;;;;;;4953070;28;20054;-74
2022/02/22 09:30:10;;;;;;;19.35;5.70;;;11.10;99.90;;;;;;4953228;28;20078;-69
2022/02/22 09:32:38;;;;;;;16.58;4.50;;;11.10;99.90;;;;;;4958294;28;20062;-69
2022/02/22 09:35:05;;;;;;;17.80;4.95;;;11.10;99.90;;;;;;4968727;28;20406;-72
2022/02/22 09:37:32;;;;;;;19.88;5.70;;;11.20;99.90;;;;;;4955140;28;20043;-68
2022/02/22 09:40:00;;;;;;;16.85;5.10;;;11.20;99.90;;;;;;4936696;29;20047;-71
2022/02/22 09:42:28;;;;;;;10.75;3.60;;;11.20;99.90;;;;;;4953879;28;20066;-70
2022/02/22 09:44:56;;;;;;;20.70;5.68;;;11.30;99.90;;;;;;4953124;29;20086;-71
2022/02/22 09:47:23;;;;;;;17.55;5.07;;;11.40;99.90;;;;;;4958312;28;21650;-75
2022/02/22 09:49:51;;;;;;;27.60;6.40;;;11.40;99.90;;;;;;4940701;28;20058;-75
2022/02/22 09:52:18;;;;;;;16.92;5.78;;;11.60;99.90;;;;;;4963187;28;20055;-66
2022/02/22 09:54:45;;;;;;;22.33;6.30;;;11.70;99.90;;;;;;4958986;28;20047;-67
2022/02/22 09:57:17;;;;;;;20.07;6.53;;;11.80;99.90;;;;;;4986700;28;20077;-66
2022/02/22 09:59:44;;;;;;;15.27;5.50;;;11.90;99.90;;;;;;4992835;28;20057;-71
2022/02/22 10:02:11;;;;;;;12.30;4.70;;;12.00;99.90;;;;;;4954414;28;20126;-69
2022/02/22 10:04:42;;;;;;;11.93;4.68;;;12.10;99.90;;;;;;4940205;29;20051;-72
2022/02/22 10:07:10;;;;;;;15.07;4.70;;;12.10;99.90;;;;;;4966165;28;20135;-69
2022/02/22 10:09:54;;;;;;;17.80;6.00;;;12.20;99.90;;;;;;4986939;28;20097;-68
2022/02/22 10:12:35;;;;;;;17.33;4.57;;;12.20;99.90;;;;;;4964735;28;20122;-72
2022/02/22 10:15:03;;;;;;;15.50;5.10;;;12.30;99.90;;;;;;4956739;28;20061;-73
2022/02/22 10:17:37;;;;;;;12.55;4.72;;;12.30;99.30;;;;;;4986778;28;20079;-66
2022/02/22 10:20:05;;;;;;;12.20;4.13;;;12.40;97.80;;;;;;4946324;29;20049;-65
2022/02/22 10:22:32;;;;;;;15.60;4.20;;;12.40;97.20;;;;;;4957608;28;20058;-65
2022/02/22 10:25:09;;;;;;;16.33;4.95;;;12.50;96.80;;;;;;4972042;28;20147;-65
2022/02/22 10:27:41;;;;;;;14.85;4.30;;;12.60;96.50;;;;;;4956778;28;20051;-67
2022/02/22 10:30:39;;;;;;;17.35;5.65;;;12.60;95.80;;;;;;4943562;28;20043;-67
2022/02/22 10:33:16;;;;;;;15.18;5.60;;;12.70;95.60;;;;;;4965815;28;20044;-66
2022/02/22 10:35:48;;;;;;;14.98;5.25;;;12.60;95.40;;;;;;4963187;28;20474;-69
2022/02/22 10:38:20;;;;;;;18.13;4.90;;;12.50;95.30;;;;;;4967524;28;20049;-69
2022/02/22 10:41:02;;;;;;;15.52;5.72;;;12.50;95.40;;;;;;4972333;28;20053;-71
2022/02/22 10:43:36;;;;;;;15.38;5.18;;;12.50;94.90;;;;;;4952419;28;20051;-67
2022/02/22 10:46:04;;;;;;;15.13;5.00;;;12.60;95.20;;;;;;4953789;28;20055;-66
2022/02/22 10:48:37;;;;;;;22.20;4.80;;;12.80;95.30;;;;;;4967937;28;20055;-68
2022/02/22 10:51:14;;;;;;;18.13;6.07;;;13.00;94.00;;;;;;4963588;28;20078;-66
2022/02/22 10:53:44;;;;;;;12.57;4.95;;;13.10;94.30;;;;;;4971590;28;20051;-68
2022/02/22 10:56:17;;;;;;;18.17;6.00;;;13.20;94.10;;;;;;4965501;28;20042;-68
2022/02/22 10:58:45;;;;;;;23.00;7.05;;;13.40;94.70;;;;;;4955931;28;20054;-65
2022/02/22 11:01:19;;;;;;;17.90;6.20;;;13.40;93.60;;;;;;4940161;28;20101;-66
2022/02/22 11:03:46;;;;;;;20.80;5.40;;;13.30;92.60;;;;;;4940023;29;20530;-67
2022/02/22 11:06:14;;;;;;;18.73;6.03;;;13.30;92.70;;;;;;4984795;28;20047;-64
2022/02/22 11:08:46;;;;;;;22.77;6.50;;;13.30;92.40;;;;;;4965357;28;20058;-69
2022/02/22 11:11:41;;;;;;;17.60;6.30;;;13.40;92.50;;;;;;4963264;28;20047;-66
2022/02/22 11:14:17;;;;;;;19.90;5.70;;;13.40;92.30;;;;;;4947157;29;20396;-66
2022/02/22 11:16:52;;;;;;;22.17;6.53;;;13.60;92.10;;;;;;4956030;29;20051;-76
2022/02/22 11:19:21;;;;;;;23.98;6.65;;;13.80;91.60;;;;;;4955342;29;20054;-68
2022/02/22 11:21:56;;;;;;;23.20;6.85;;;13.80;91.50;;;;;;4955337;29;20055;-71
2022/02/22 11:24:23;;;;;;;20.20;6.88;;;13.80;90.70;;;;;;4967291;28;20050;-70
2022/02/22 11:26:57;;;;;;;18.45;6.57;;;13.90;90.50;;;;;;4943335;29;20062;-69
2022/02/22 11:29:28;;;;;;;19.48;6.90;;;13.80;90.00;;;;;;4958930;28;20055;-69
2022/02/22 11:32:06;;;;;;;22.95;7.03;;;13.80;90.80;;;;;;4986552;28;20047;-71
2022/02/22 11:34:36;;;;;;;19.75;5.85;;;13.80;90.10;;;;;;4987540;28;20059;-70
2022/02/22 11:37:06;;;;;;;13.20;4.97;;;13.70;89.50;;;;;;4970261;28;20062;-70
2022/02/22 11:39:54;;;;;;;18.33;5.95;;;13.70;90.00;;;;;;4987711;28;20085;-71
2022/02/22 11:42:31;;;;;;;15.68;5.63;;;13.70;89.80;;;;;;4954784;29;20051;-68
2022/02/22 11:45:01;;;;;;;16.30;5.13;;;13.60;89.80;;;;;;4969504;28;20047;-71
2022/02/22 11:47:29;;;;;;;20.48;5.50;;;13.60;89.10;;;;;;4987121;28;20506;-74
2022/02/22 11:49:56;;;;;;;14.32;5.07;;;13.60;89.40;;;;;;4970771;28;20138;-70
2022/02/22 11:52:36;;;;;;;;;;;13.60;90.00;;;;;;4970679;28;20082;-73
2022/02/22 11:55:08;;;;;;;14.43;5.15;;;13.60;88.40;;;;;;4973166;28;19926;-68
2022/02/22 11:57:53;;;;;;;16.17;6.25;;;13.70;88.00;;;;;;4950414;28;20043;-68
2022/02/22 12:00:36;;;;;;;19.77;5.13;;;13.70;87.70;;;;;;4981963;28;20050;-70
2022/02/22 12:03:09;;;;;;;18.55;5.05;;;13.70;87.10;;;;;;4986610;28;20062;-71
2022/02/22 12:05:39;;;;;;;56.58;38.67;;;13.80;89.20;;;;;;4956230;28;20062;-72
2022/02/22 12:08:28;;;;;;;26.65;7.35;;;13.90;88.50;;;;;;4960195;28;20464;-73
2022/02/22 12:10:57;;;;;;;16.17;5.70;;;14.00;88.10;;;;;;4974473;28;20058;-71
2022/02/22 12:13:27;;;;;;;15.25;5.57;;;14.10;87.70;;;;;;4947618;28;20051;-77
2022/02/22 12:15:54;;;;;;;;;;;14.30;86.70;;;;;;4962896;28;20058;-76
2022/02/22 12:18:26;;;;;;;17.45;6.15;;;14.30;86.80;;;;;;4956484;28;19926;-73
2022/02/22 12:20:54;;;;;;;18.48;9.63;;;14.20;86.90;;;;;;4953753;28;20054;-72
2022/02/22 12:23:25;;;;;;;15.45;5.18;;;14.10;87.10;;;;;;4970493;28;20055;-75
2022/02/22 12:26:04;;;;;;;18.20;5.72;;;14.00;87.50;;;;;;4982557;28;20410;-71
2022/02/22 12:28:31;;;;;;;16.35;5.07;;;14.00;88.00;;;;;;4982718;28;20047;-69
2022/02/22 12:30:58;;;;;;;17.38;5.78;;;13.90;88.30;;;;;;4942199;28;20051;-65
2022/02/22 12:33:32;;;;;;;18.85;5.53;;;13.90;88.20;;;;;;4952730;28;20055;-71
2022/02/22 12:36:10;;;;;;;17.45;4.88;;;13.80;88.40;;;;;;4950596;28;20054;-68
2022/02/22 12:38:37;;;;;;;14.02;4.60;;;13.80;88.50;;;;;;4963254;28;20058;-50
2022/02/22 12:41:11;;;;;;;74.55;49.47;;;13.80;89.80;;;;;;4951534;28;20082;-70
2022/02/22 12:43:49;;;;;;;29.17;17.27;;;13.80;90.10;;;;;;4951985;29;20055;-70
2022/02/22 12:46:18;;;;;;;16.60;6.03;;;13.80;90.00;;;;;;4918498;29;20063;-67
2022/02/22 12:48:45;;;;;;;20.42;5.88;;;13.70;90.00;;;;;;4981777;28;20077;-69